TimeEDT,TemperatureF,Dew PointF,Humidity,Sea Level PressureIn,VisibilityMPH,Wind Direction,Wind SpeedMPH,Gust SpeedMPH,PrecipitationIn,Events,Conditions,WindDirDegrees,DateUTC
12:53 AM,46.9,23.0,39,29.93,10.0,WNW,6.9,-,N/A,,Clear,290,2012-11-01 04:53:00
1:53 AM,45.0,27.0,49,29.93,10.0,NW,5.8,-,N/A,,Clear,320,2012-11-01 05:53:00
2:53 AM,39.9,28.0,63,29.94,10.0,Calm,Calm,-,N/A,,Clear,0,2012-11-01 06:53:00
3:53 AM,37.9,28.9,70,29.94,10.0,Calm,Calm,-,N/A,,Partly Cloudy,0,2012-11-01 07:53:00
4:53 AM,37.9,28.0,68,29.95,10.0,Calm,Calm,-,N/A,,Mostly Cloudy,0,2012-11-01 08:53:00
5:53 AM,36.0,28.0,73,29.96,10.0,Calm,Calm,-,N/A,,Partly Cloudy,0,2012-11-01 09:53:00
6:53 AM,35.1,28.0,76,29.97,10.0,Calm,Calm,-,N/A,,Mostly Cloudy,0,2012-11-01 10:53:00
7:53 AM,33.1,28.0,82,29.99,10.0,Calm,Calm,-,N/A,,Clear,0,2012-11-01 11:53:00
8:53 AM,36.0,28.0,73,30.01,10.0,Calm,Calm,-,N/A,,Clear,0,2012-11-01 12:53:00
9:53 AM,42.1,27.0,55,30.01,10.0,Variable,3.5,-,N/A,,Clear,0,2012-11-01 13:53:00
10:53 AM,46.9,26.1,44,30.01,10.0,Variable,6.9,-,N/A,,Clear,0,2012-11-01 14:53:00
11:53 AM,50.0,23.0,35,30.00,10.0,Variable,4.6,-,N/A,,Clear,0,2012-11-01 15:53:00
12:53 PM,54.0,19.9,26,29.99,10.0,Variable,5.8,-,N/A,,Clear,0,2012-11-01 16:53:00
1:53 PM,55.9,19.0,24,29.95,10.0,Variable,5.8,-,N/A,,Clear,0,2012-11-01 17:53:00
2:53 PM,59.0,14.0,17,29.93,10.0,West,10.4,16.1,N/A,,Clear,270,2012-11-01 18:53:00
3:53 PM,59.0,10.9,15,29.93,10.0,Variable,6.9,-,N/A,,Clear,0,2012-11-01 19:53:00
4:53 PM,59.0,10.0,14,29.93,10.0,WSW,8.1,17.3,N/A,,Clear,250,2012-11-01 20:53:00
5:53 PM,57.0,10.9,16,29.94,10.0,WSW,8.1,-,N/A,,Clear,250,2012-11-01 21:53:00
6:53 PM,55.0,12.9,19,29.96,10.0,West,4.6,-,N/A,,Clear,260,2012-11-01 22:53:00
7:53 PM,54.0,15.1,22,29.98,10.0,West,4.6,-,N/A,,Clear,270,2012-11-01 23:53:00
8:53 PM,50.0,18.0,28,29.99,10.0,Calm,Calm,-,N/A,,Clear,0,2012-11-02 00:53:00
9:53 PM,46.0,21.9,39,30.00,10.0,Calm,Calm,-,N/A,,Clear,0,2012-11-02 01:53:00
10:53 PM,43.0,23.0,45,29.99,10.0,Calm,Calm,-,N/A,,Clear,0,2012-11-02 02:53:00
11:53 PM,43.0,24.1,47,29.98,10.0,Calm,Calm,-,N/A,,Mostly Cloudy,0,2012-11-02 03:53:00